Airfield :
LOGIN :

Register | Disclaimer

   EN    FR    IT 

 










Legend :    VFR   Marginal VFR   IFR   Intensive IFR   Very Intensive IFR
Visi :
Ceiling :
>= 8 km
>= 3000ft
5 to 8 km
1000 to 3000 ft
1500m to 5 km
500 to 1000 ft
800 to 1500m
200 to 500 ft
< 800m
< 200 ft
Symbols :   Thunderstorms  Fog  Heavy snow  Heavy precipitations  Wind > 20 kt
SIGMETs :     Misc.  Thunderstorms  Icing  Turbulence  Mountain Waves  Volcanic Ashes






- Airport Elevation : 1017 ft


LFSL - Brive Souillac

CURRENT METAR :
  • 221400Z AUTO 17005KT 110V250 CAVOK 31/20 Q1009 NOSIG

EXPIRED METARs :
  • 221330Z AUTO VRB03KT CAVOK 31/18 Q1009 NOSIG
  • 221300Z AUTO 12007KT 080V170 CAVOK 30/17 Q1009 NOSIG
  • 221230Z AUTO VRB03KT 9999 //////TCU 30/18 Q1010 BECMG NSC
  • 221200Z AUTO 17004KT 090V240 CAVOK 30/18 Q1010 NOSIG
  • 221130Z AUTO 15007KT 100V200 CAVOK 29/19 Q1010 NOSIG

TAF TAF LFSL
Valid from the 22 at 12:00 until the 22 at 21:00 UTC


221100Z 2212/2221 14006KT CAVOK
BECMG 2215/2217 25008KT
TEMPO 2217/2221 VRB15G25KT 4000 TSRA SCT060CB
PROB30
TEMPO 2218/2221 22030G45KT 1500 TSRAGR BKN030CB



MET'MAP, your aeronautical weather chart ! - Copyright ORBIFLY December 2007 - Disclaimer

ORBIFLY MET'MAP TEAM :

Programming & Development : Alexandra Zaïnal
Original concept : Baudouin d'Aumeries
Technical & hardware support : Manuel Goepfert
Assistance : Marc-Olivier Méhu

Contact : metmap@orbifly.com




SOURCES & CREDITS :

   NOAA